Hesperia, CA (92345)

9:12 PM PDT on May 26, 2015 (GMT -0700)
Maple-Ranchero Area/Hesperia | | Change Station
CLOSE
Current Station
Personal Weather Station
Location: Hesperia, CA
Elevation: 3486 ft
Nearby Weather Stations

Elev 3486 ft 34.39 °N, 117.34 °W | Updated 21 seconds ago

Clear
Clear
64.0 °F
Feels Like 64.0 °F
N
10.7
Wind Variable Wind from South
Gusts 16.4 mph

Today
High -- | Low -- °F
--% Chance of Precip.
Yesterday
High -- | Low -- °F
Precip. -- in
5:40 AM 7:52 PM
Waxing Gibbous, 64% visible
Pressure 29.96 in
Visibility 10.0 miles
Clouds Clear
Dew Point 34 °F
Humidity 33%
Rainfall 0.00 in
Snow Depth Not available.
UV 0 out of 12
Pollen 4.70 out of 12
Air Quality Not available.
Flu Activity Sporadic
METAR KVCV 270355Z AUTO 20005KT 10SM CLR 20/03 A2996 RMK AO2

More Conditions Fewer Conditions

Pressure 29.96 in
Visibility 10.0 miles
Clouds Clear
Dew Point 34 °F
Humidity 33%
Rainfall 0.00 in
Snow Depth Not available.
UV 0 out of 12
Pollen 4.70 out of 12
Air Quality Not available.
Flu Activity Sporadic
METAR KVCV 270355Z AUTO 20005KT 10SM CLR 20/03 A2996 RMK AO2

More Conditions Fewer Conditions

10-Day Weather Forecast

Almanac

Astronomy

May. 26, 2015 Rise Set
Actual Time
Civil Twilight
Nautical Twilight
Astronomical Twilight
Moon
Length of Visible Light
Length of Day
Tomorrow will be .
, % of the Moon is Illuminated

Today's Extremes

State Highs State Lows

Community

WunderPhotos

Upload Photos

1,824,606 photos uploaded!

WunderBlogs® & News

Nearby

Air Quality

  Air Quality AQ Index Pollutant
Not available.

Snow Depth

Station Depth Elevation

Earthquake Activity

City Distance Mag. Time & Date
Minimum magnitude displayed is 2.5.

Coastal Water Temperatures

Place Temperature

Stations

Nearby Weather Stations

Station Location Temp. Windchill Dew Point Humidity Wind Precip. Elev Updated Type